Olympic Champion — SYWD — position and weather

sailwx.info

Track history (hours):
 
Tides and Currents Weather Stations Pressure Air Temp Water Temp Dewpoint Dewpoint Depression Visibility Wind Speed Wind Dir Waves Ship Positions

Olympic Champion

Last reported at 2016-Nov-23 03:06 UTC. Time now 2016-Dec-06 12:11 UTC.
Position N 43°37' E 013°30'.
Warning: this ship's position is 13 days out of date.

Length 204 m; draft 6.4 m.

Type: Passenger vessel. MMSI: 237280000.

Date/timePositionNaut miles runAvg speedWind from/ knotsBaromVisibWave heightAir tempDewpointWater temp
2016-Nov-23 03:06N 43°37' E 013°30'0 0.0
2016-Nov-23 02:33N 43°37' E 013°30'0 0.0
2016-Nov-23 00:33N 43°37' E 013°30'0 0.0
2016-Nov-22 23:33N 43°37' E 013°30'0 0.0
2016-Nov-22 22:30N 43°37' E 013°30'0 0.0
2016-Nov-22 20:15N 43°37' E 013°30'0 0.0
2016-Nov-22 19:33N 43°37' E 013°30'0 0.1
2016-Nov-22 15:18N 43°37' E 013°30'  
2016-Nov-19 17:21N 38°18' E 020°60'1924.0
2016-Nov-19 16:34N 38°15' E 021°24'2 0.4
2016-Nov-19 11:32N 38°16' E 021°26'4623.1
2016-Nov-19 09:32N 38°34' E 020°32'43915.2
2016-Nov-18 04:32N 43°37' E 013°30'0 0.0
2016-Nov-18 00:29N 43°37' E 013°30'46414.9
2016-Nov-16 17:16N 38°20' E 020°59'1622.6
2016-Nov-16 16:34N 38°15' E 021°18'3 0.3
2016-Nov-16 04:33N 38°12' E 021°18'2121.2
2016-Nov-16 03:33N 37°54' E 021°04'12513.9
2016-Nov-15 18:33N 37°02' E 023°28'5611.2
2016-Nov-15 13:31N 37°58' E 023°34'0 0.0
2016-Nov-15 12:31N 37°58' E 023°34'0 0.0
2016-Nov-15 11:31N 37°58' E 023°34'0 0.0
2016-Nov-15 10:31N 37°58' E 023°34'0 0.0
2016-Nov-15 07:31N 37°58' E 023°34'0 0.0
2016-Nov-15 06:28N 37°58' E 023°34'0 0.0
2016-Nov-15 05:52N 37°58' E 023°34'0 0.0
2016-Nov-15 03:31N 37°58' E 023°34'0 0.0
2016-Nov-15 02:31N 37°58' E 023°34'0 0.0
2016-Nov-15 00:31N 37°58' E 023°34'0 0.0
2016-Nov-14 23:40N 37°58' E 023°34'0 0.0
2016-Nov-14 19:28N 37°58' E 023°34'0 0.0
2016-Nov-14 17:31N 37°58' E 023°34'0 0.0
2016-Nov-14 16:28N 37°58' E 023°34'0 0.0
2016-Nov-14 15:32N 37°58' E 023°34'0 0.0
2016-Nov-14 11:31N 37°58' E 023°34'0 0.0
2016-Nov-14 08:31N 37°58' E 023°34'0 0.0
2016-Nov-14 05:31N 37°58' E 023°34'0 0.0
2016-Nov-14 00:31N 37°58' E 023°34'0 0.0
2016-Nov-13 23:31N 37°58' E 023°34'0 0.0
2016-Nov-13 22:31N 37°58' E 023°34'0 0.0
2016-Nov-13 19:31N 37°58' E 023°34'0 0.0
2016-Nov-13 18:31N 37°58' E 023°34'0 0.0
2016-Nov-13 17:31N 37°58' E 023°34'0 0.0
2016-Nov-13 15:31N 37°58' E 023°34'0 0.0
2016-Nov-13 13:31N 37°58' E 023°34'0 0.0
2016-Nov-13 10:31N 37°58' E 023°34'0 0.0
2016-Nov-13 08:22N 37°58' E 023°34'0 0.0
2016-Nov-13 05:30N 37°58' E 023°34'0 0.0
2016-Nov-13 03:28N 37°58' E 023°34'  
Track history (hours):
 
Tides and Currents Weather Stations Pressure Air Temp Water Temp Dewpoint Dewpoint Depression Visibility Wind Speed Wind Dir Waves Ship Positions

Olympic Champion

Last reported at 2016-Nov-23 03:06 UTC. Time now 2016-Dec-06 12:11 UTC.
Position N 43°37' E 013°30'.
Warning: this ship's position is 13 days out of date.

Length 204 m; draft 6.4 m.

Type: Passenger vessel. MMSI: 237280000.

Date/timePositionNaut miles runAvg speedWind from/ knotsBaromVisibWave heightAir tempDewpointWater temp
2016-Nov-23 03:06N 43°37' E 013°30'0 0.0
2016-Nov-23 02:33N 43°37' E 013°30'0 0.0
2016-Nov-23 00:33N 43°37' E 013°30'0 0.0
2016-Nov-22 23:33N 43°37' E 013°30'0 0.0
2016-Nov-22 22:30N 43°37' E 013°30'0 0.0
2016-Nov-22 20:15N 43°37' E 013°30'0 0.0
2016-Nov-22 19:33N 43°37' E 013°30'0 0.1
2016-Nov-22 15:18N 43°37' E 013°30'  
2016-Nov-19 17:21N 38°18' E 020°60'1924.0
2016-Nov-19 16:34N 38°15' E 021°24'2 0.4
2016-Nov-19 11:32N 38°16' E 021°26'4623.1
2016-Nov-19 09:32N 38°34' E 020°32'43915.2
2016-Nov-18 04:32N 43°37' E 013°30'0 0.0
2016-Nov-18 00:29N 43°37' E 013°30'46414.9
2016-Nov-16 17:16N 38°20' E 020°59'1622.6
2016-Nov-16 16:34N 38°15' E 021°18'3 0.3
2016-Nov-16 04:33N 38°12' E 021°18'2121.2
2016-Nov-16 03:33N 37°54' E 021°04'12513.9
2016-Nov-15 18:33N 37°02' E 023°28'5611.2
2016-Nov-15 13:31N 37°58' E 023°34'0 0.0
2016-Nov-15 12:31N 37°58' E 023°34'0 0.0
2016-Nov-15 11:31N 37°58' E 023°34'0 0.0
2016-Nov-15 10:31N 37°58' E 023°34'0 0.0
2016-Nov-15 07:31N 37°58' E 023°34'0 0.0
2016-Nov-15 06:28N 37°58' E 023°34'0 0.0
2016-Nov-15 05:52N 37°58' E 023°34'0 0.0
2016-Nov-15 03:31N 37°58' E 023°34'0 0.0
2016-Nov-15 02:31N 37°58' E 023°34'0 0.0
2016-Nov-15 00:31N 37°58' E 023°34'0 0.0
2016-Nov-14 23:40N 37°58' E 023°34'0 0.0
2016-Nov-14 19:28N 37°58' E 023°34'0 0.0
2016-Nov-14 17:31N 37°58' E 023°34'0 0.0
2016-Nov-14 16:28N 37°58' E 023°34'0 0.0
2016-Nov-14 15:32N 37°58' E 023°34'0 0.0
2016-Nov-14 11:31N 37°58' E 023°34'0 0.0
2016-Nov-14 08:31N 37°58' E 023°34'0 0.0
2016-Nov-14 05:31N 37°58' E 023°34'0 0.0
2016-Nov-14 00:31N 37°58' E 023°34'0 0.0
2016-Nov-13 23:31N 37°58' E 023°34'0 0.0
2016-Nov-13 22:31N 37°58' E 023°34'0 0.0
2016-Nov-13 19:31N 37°58' E 023°34'0 0.0
2016-Nov-13 18:31N 37°58' E 023°34'0 0.0
2016-Nov-13 17:31N 37°58' E 023°34'0 0.0
2016-Nov-13 15:31N 37°58' E 023°34'0 0.0
2016-Nov-13 13:31N 37°58' E 023°34'0 0.0
2016-Nov-13 10:31N 37°58' E 023°34'0 0.0
2016-Nov-13 08:22N 37°58' E 023°34'0 0.0
2016-Nov-13 05:30N 37°58' E 023°34'0 0.0
2016-Nov-13 03:28N 37°58' E 023°34'  

Dump ship's entire track history